Time;durP1;ratioP1;P1;durP2;ratioP2;P2;SDS_P1;SDS_P2;PMS_P1;PMS_P2;Temp;Humidity;BMP_temperature;BMP_pressure;BME280_temperature;BME280_humidity;BME280_pressure;Samples;Min_cycle;Max_cycle;Signal;HPM_P1;HPM_P2
2023/09/18 00:02:32;;;;;;;6.25;5.65;;;23.80;99.90;;;;;;6230805;28;89026;-73
2023/09/18 00:05:34;;;;;;;6.35;5.70;;;23.80;99.90;;;;;;6229805;28;88978;-74
2023/09/18 00:08:36;;;;;;;6.18;5.32;;;23.80;99.90;;;;;;6230691;28;89120;-73
2023/09/18 00:11:39;;;;;;;5.90;5.40;;;23.80;99.90;;;;;;6226465;28;89078;-74
2023/09/18 00:14:42;;;;;;;6.25;5.75;;;23.80;99.90;;;;;;6226616;28;89729;-73
2023/09/18 00:17:45;;;;;;;7.75;6.05;;;23.80;99.90;;;;;;6221134;28;87913;-73
2023/09/18 00:20:48;;;;;;;6.65;5.95;;;23.80;99.90;;;;;;6230069;28;88389;-73
2023/09/18 00:23:50;;;;;;;6.65;6.00;;;23.90;99.90;;;;;;6231504;28;87842;-73
2023/09/18 00:26:52;;;;;;;6.10;5.60;;;23.80;99.90;;;;;;6229901;28;89303;-70
2023/09/18 00:29:56;;;;;;;7.38;6.15;;;23.80;99.90;;;;;;6228743;28;90088;-71
2023/09/18 00:32:58;;;;;;;6.72;5.97;;;23.80;99.90;;;;;;6228350;28;89107;-72
2023/09/18 00:36:00;;;;;;;6.22;5.63;;;23.80;99.90;;;;;;6226971;28;88986;-69
2023/09/18 00:39:02;;;;;;;6.78;6.07;;;23.80;99.90;;;;;;6217639;28;89000;-71
2023/09/18 00:42:05;;;;;;;6.57;5.97;;;23.80;99.90;;;;;;6228820;28;89481;-71
2023/09/18 00:45:09;;;;;;;6.28;5.78;;;23.80;99.90;;;;;;6231176;28;88733;-70
2023/09/18 00:48:12;;;;;;;6.65;6.00;;;23.80;99.90;;;;;;6228775;28;89114;-71
2023/09/18 00:51:15;;;;;;;6.88;5.38;;;23.80;99.90;;;;;;6230601;28;88352;-71
2023/09/18 00:54:20;;;;;;;6.63;6.03;;;23.80;99.90;;;;;;6230205;28;89439;-71
2023/09/18 00:57:22;;;;;;;6.45;5.88;;;23.80;99.90;;;;;;6222150;28;89200;-71
2023/09/18 01:00:25;;;;;;;6.22;5.72;;;23.80;99.90;;;;;;6213513;28;89949;-71
2023/09/18 01:03:28;;;;;;;6.70;5.43;;;23.80;99.90;;;;;;6225560;28;89117;-71
2023/09/18 01:06:30;;;;;;;6.60;5.93;;;23.80;99.90;;;;;;6221511;28;88971;-70
2023/09/18 01:09:33;;;;;;;7.35;5.63;;;23.80;99.90;;;;;;6224720;28;90855;-71
2023/09/18 01:12:41;;;;;;;10.30;7.07;;;23.80;99.90;;;;;;6219701;28;89693;-71
2023/09/18 01:15:49;;;;;;;6.80;5.90;;;23.80;99.90;;;;;;6225912;28;89366;-71
2023/09/18 01:18:51;;;;;;;6.20;5.68;;;23.80;99.90;;;;;;6229717;28;89061;-71
2023/09/18 01:21:54;;;;;;;7.25;5.82;;;23.80;99.90;;;;;;6221893;28;88404;-71
2023/09/18 01:24:57;;;;;;;7.72;6.07;;;23.80;99.90;;;;;;6227426;28;89921;-71
2023/09/18 01:27:59;;;;;;;6.38;5.78;;;23.80;99.90;;;;;;6223187;28;88740;-71
2023/09/18 01:31:01;;;;;;;5.95;4.82;;;23.70;99.90;;;;;;6229477;28;89905;-70
2023/09/18 01:34:03;;;;;;;5.72;5.13;;;23.70;99.90;;;;;;6234301;28;89169;-71
2023/09/18 01:37:08;;;;;;;7.03;5.97;;;23.70;99.90;;;;;;6234015;28;88346;-71
2023/09/18 01:40:11;;;;;;;6.20;5.60;;;23.70;99.90;;;;;;6233547;28;89466;-71
2023/09/18 01:43:14;;;;;;;6.00;5.50;;;23.70;99.90;;;;;;6231243;28;89123;-71
2023/09/18 01:46:16;;;;;;;6.30;5.70;;;23.80;99.90;;;;;;6228177;28;89284;-71
2023/09/18 01:49:27;;;;;;;6.93;6.22;;;23.70;99.90;;;;;;6234122;28;88705;-71
2023/09/18 01:52:29;;;;;;;6.53;5.22;;;23.70;99.90;;;;;;6232420;28;87196;-71
2023/09/18 01:55:32;;;;;;;7.07;6.28;;;23.70;99.90;;;;;;6234030;28;89027;-71
2023/09/18 01:58:34;;;;;;;7.22;6.47;;;23.70;99.90;;;;;;6234692;28;88978;-71
2023/09/18 02:01:37;;;;;;;6.43;5.82;;;23.70;99.90;;;;;;6222068;28;89978;-71
2023/09/18 02:04:39;;;;;;;6.40;5.80;;;23.70;99.90;;;;;;6227870;28;89253;-71
2023/09/18 02:07:41;;;;;;;6.50;5.88;;;23.70;99.90;;;;;;6233386;28;89056;-71
2023/09/18 02:10:45;;;;;;;6.43;5.82;;;23.70;99.90;;;;;;6224695;28;89229;-71
2023/09/18 02:13:47;;;;;;;6.40;5.80;;;23.70;99.90;;;;;;6227570;28;87950;-71
2023/09/18 02:16:49;;;;;;;5.78;5.18;;;23.70;99.90;;;;;;6231521;28;89070;-71
2023/09/18 02:19:51;;;;;;;8.82;6.70;;;23.70;99.90;;;;;;6228071;28;89246;-72
2023/09/18 02:22:53;;;;;;;7.70;6.30;;;23.70;99.90;;;;;;6232237;28;88391;-71
2023/09/18 02:26:00;;;;;;;6.70;6.13;;;23.70;99.90;;;;;;6233481;28;89084;-72
2023/09/18 02:29:03;;;;;;;6.55;5.95;;;23.70;99.90;;;;;;6231309;28;89367;-71
2023/09/18 02:32:05;;;;;;;6.70;6.10;;;23.70;99.90;;;;;;6232025;28;90177;-71
2023/09/18 02:35:08;;;;;;;5.95;5.45;;;23.70;99.90;;;;;;6231675;28;89031;-72
2023/09/18 02:38:10;;;;;;;7.15;6.15;;;23.70;99.90;;;;;;6231968;28;89154;-71
2023/09/18 02:41:13;;;;;;;7.55;6.43;;;23.70;99.90;;;;;;6231971;28;89057;-71
2023/09/18 02:44:15;;;;;;;7.78;6.53;;;23.70;99.90;;;;;;6230880;28;89807;-71
2023/09/18 02:47:18;;;;;;;9.00;6.82;;;23.70;99.90;;;;;;6222794;28;89165;-72
2023/09/18 02:50:20;;;;;;;6.50;5.72;;;23.70;99.90;;;;;;6230552;28;89273;-72
2023/09/18 02:53:24;;;;;;;6.88;6.28;;;23.70;99.90;;;;;;6223715;28;88821;-71
2023/09/18 02:56:27;;;;;;;6.22;5.72;;;23.70;99.90;;;;;;6227228;28;89108;-72
2023/09/18 02:59:29;;;;;;;7.53;6.75;;;23.70;99.90;;;;;;6230185;28;89390;-71
2023/09/18 03:02:31;;;;;;;6.47;5.88;;;23.70;99.90;;;;;;6214913;28;90027;-71
2023/09/18 03:05:33;;;;;;;8.82;6.85;;;23.60;99.90;;;;;;6231269;28;89077;-72
2023/09/18 03:08:35;;;;;;;7.55;6.10;;;23.70;99.90;;;;;;6231233;28;88966;-71
2023/09/18 03:11:39;;;;;;;7.10;6.50;;;23.60;99.90;;;;;;6226484;28;88983;-72
2023/09/18 03:14:41;;;;;;;7.18;6.47;;;23.60;99.90;;;;;;6231195;28;88996;-71
2023/09/18 03:17:43;;;;;;;7.90;7.10;;;23.60;99.90;;;;;;6229591;28;89336;-71
2023/09/18 03:20:45;;;;;;;8.07;7.28;;;23.70;99.90;;;;;;6224371;28;89555;-72
2023/09/18 03:23:47;;;;;;;8.23;7.00;;;23.60;99.90;;;;;;6224132;28;88681;-71
2023/09/18 03:26:50;;;;;;;7.60;6.90;;;23.60;99.90;;;;;;6228796;28;89242;-71
2023/09/18 03:29:54;;;;;;;7.45;6.75;;;23.60;99.90;;;;;;6231963;28;89376;-70
2023/09/18 03:32:56;;;;;;;7.18;6.50;;;23.60;99.90;;;;;;6231427;28;90145;-71
2023/09/18 03:35:58;;;;;;;6.75;6.15;;;23.60;99.90;;;;;;6231270;28;88958;-71
2023/09/18 03:39:00;;;;;;;7.13;6.43;;;23.60;99.90;;;;;;6231109;28;89023;-71
2023/09/18 03:42:04;;;;;;;7.97;6.78;;;23.60;99.90;;;;;;6232128;28;88979;-70
2023/09/18 03:45:07;;;;;;;7.25;6.55;;;23.60;99.90;;;;;;6231312;28;89047;-71
2023/09/18 03:48:09;;;;;;;9.70;7.30;;;23.60;99.90;;;;;;6230707;28;89015;-70
2023/09/18 03:51:15;;;;;;;7.40;6.65;;;23.60;99.90;;;;;;6222182;28;89117;-71
2023/09/18 03:54:17;;;;;;;8.75;6.50;;;23.60;99.90;;;;;;6224117;28;88308;-71
2023/09/18 03:57:20;;;;;;;7.10;6.40;;;23.60;99.90;;;;;;6231752;28;89120;-71
2023/09/18 04:00:23;;;;;;;7.38;6.68;;;23.60;99.90;;;;;;6226350;28;89247;-71
2023/09/18 04:03:25;;;;;;;6.97;6.25;;;23.60;99.90;;;;;;6231423;28;92061;-71
2023/09/18 04:06:36;;;;;;;7.57;6.88;;;23.60;99.90;;;;;;6231054;28;89048;-71
2023/09/18 04:09:39;;;;;;;7.15;6.45;;;23.60;99.90;;;;;;6230903;28;88997;-71
2023/09/18 04:12:43;;;;;;;8.43;7.13;;;23.60;99.90;;;;;;6225350;28;89089;-71
2023/09/18 04:15:47;;;;;;;7.30;6.70;;;23.60;99.90;;;;;;6224464;28;89067;-70
2023/09/18 04:18:49;;;;;;;7.38;6.68;;;23.60;99.90;;;;;;6230299;28;89002;-71
2023/09/18 04:21:52;;;;;;;6.50;5.80;;;23.60;99.90;;;;;;6230992;28;89097;-71
2023/09/18 04:24:55;;;;;;;6.47;5.93;;;23.60;99.90;;;;;;6231767;28;87196;-71
2023/09/18 04:27:58;;;;;;;7.97;6.38;;;23.60;99.90;;;;;;6215680;28;89021;-71
2023/09/18 04:31:00;;;;;;;7.30;6.38;;;23.60;99.90;;;;;;6230902;28;87589;-70
2023/09/18 04:34:02;;;;;;;7.43;6.57;;;23.50;99.90;;;;;;6230271;28;88918;-71
2023/09/18 04:37:04;;;;;;;6.60;6.00;;;23.60;99.90;;;;;;6230053;28;89242;-70
2023/09/18 04:40:11;;;;;;;6.43;5.85;;;23.60;99.90;;;;;;6223497;28;89076;-71
2023/09/18 04:43:14;;;;;;;7.13;6.43;;;23.60;99.90;;;;;;6228996;28;88027;-71
2023/09/18 04:46:16;;;;;;;6.55;5.90;;;23.60;99.90;;;;;;6230952;28;89872;-71
2023/09/18 04:49:18;;;;;;;7.03;6.32;;;23.50;99.90;;;;;;6232256;28;89141;-71
2023/09/18 04:52:20;;;;;;;6.35;5.75;;;23.60;99.90;;;;;;6230541;28;89130;-71
2023/09/18 04:55:22;;;;;;;6.53;5.93;;;23.50;99.90;;;;;;6226066;28;88311;-71
2023/09/18 04:58:26;;;;;;;9.20;6.05;;;23.50;99.90;;;;;;6229562;28;89116;-71
2023/09/18 05:01:29;;;;;;;6.30;5.70;;;23.50;99.90;;;;;;6224823;28;88999;-70
2023/09/18 05:04:31;;;;;;;6.28;5.30;;;23.50;99.90;;;;;;6229444;28;90019;-71
2023/09/18 05:07:33;;;;;;;5.95;5.45;;;23.50;99.90;;;;;;6229524;28;89316;-71
2023/09/18 05:10:36;;;;;;;6.15;5.55;;;23.50;99.90;;;;;;6229839;28;89349;-71
2023/09/18 05:13:39;;;;;;;6.13;5.60;;;23.50;99.90;;;;;;6230324;28;89267;-71
2023/09/18 05:16:41;;;;;;;6.05;5.55;;;23.50;99.90;;;;;;6229332;28;89033;-70
2023/09/18 05:19:43;;;;;;;6.80;6.03;;;23.50;99.90;;;;;;6227668;28;87952;-72
2023/09/18 05:22:45;;;;;;;5.82;5.30;;;23.50;99.90;;;;;;6230850;28;89143;-71
2023/09/18 05:25:47;;;;;;;6.05;4.82;;;23.50;99.90;;;;;;6231820;28;88279;-71
2023/09/18 05:28:51;;;;;;;7.40;4.85;;;23.50;99.90;;;;;;6227379;28;87875;-71
2023/09/18 05:31:53;;;;;;;5.30;4.88;;;23.50;99.90;;;;;;6229986;28;89814;-71
2023/09/18 05:34:55;;;;;;;6.13;5.53;;;23.50;99.90;;;;;;6228638;28;89978;-71
2023/09/18 05:37:58;;;;;;;6.05;5.55;;;23.50;99.90;;;;;;6229609;28;89168;-70
2023/09/18 05:41:00;;;;;;;5.68;5.18;;;23.50;99.90;;;;;;6229583;28;87983;-71
2023/09/18 05:44:04;;;;;;;5.90;5.30;;;23.50;99.90;;;;;;6230260;28;89024;-71
2023/09/18 05:47:08;;;;;;;6.85;5.70;;;23.50;99.90;;;;;;6229298;28;89070;-71
2023/09/18 05:50:14;;;;;;;6.60;5.72;;;23.50;99.90;;;;;;6229230;28;89157;-71
2023/09/18 05:53:16;;;;;;;5.72;5.22;;;23.50;99.90;;;;;;6220476;28;89228;-71
2023/09/18 05:56:18;;;;;;;5.93;5.38;;;23.50;99.90;;;;;;6218465;28;88287;-71
2023/09/18 05:59:21;;;;;;;7.03;5.20;;;23.50;99.90;;;;;;6224325;28;88942;-71
2023/09/18 06:02:24;;;;;;;5.53;5.05;;;23.50;99.90;;;;;;6224908;28;89065;-70
2023/09/18 06:05:26;;;;;;;7.53;5.80;;;23.50;99.90;;;;;;6228506;28;90037;-71
2023/09/18 06:08:30;;;;;;;5.45;5.05;;;23.50;99.90;;;;;;6228879;28;87936;-71
2023/09/18 06:11:32;;;;;;;5.70;5.20;;;23.50;99.90;;;;;;6230740;28;88988;-71
2023/09/18 06:14:37;;;;;;;8.55;6.05;;;23.50;99.90;;;;;;6220558;28;88982;-71
2023/09/18 06:17:40;;;;;;;5.65;5.15;;;23.50;99.90;;;;;;6231006;28;88881;-71
2023/09/18 06:20:44;;;;;;;5.97;5.00;;;23.50;99.90;;;;;;6231233;28;89091;-72
2023/09/18 06:23:46;;;;;;;5.50;4.95;;;23.50;99.90;;;;;;6232093;28;89015;-71
2023/09/18 06:26:48;;;;;;;6.05;5.53;;;23.50;99.90;;;;;;6234100;28;88324;-71
2023/09/18 06:29:52;;;;;;;6.10;5.60;;;23.50;99.90;;;;;;6229433;28;89073;-71
2023/09/18 06:32:54;;;;;;;5.82;5.32;;;23.50;99.90;;;;;;6233525;28;88698;-71
2023/09/18 06:35:56;;;;;;;5.80;5.30;;;23.50;99.90;;;;;;6233074;28;89925;-71
2023/09/18 06:38:58;;;;;;;5.57;5.10;;;23.50;99.90;;;;;;6231795;28;89024;-71
2023/09/18 06:42:00;;;;;;;6.20;5.60;;;23.50;99.90;;;;;;6232160;28;89042;-72
2023/09/18 06:45:06;;;;;;;6.18;5.60;;;23.50;99.90;;;;;;6231236;28;88995;-71
2023/09/18 06:48:08;;;;;;;7.65;6.20;;;23.40;99.90;;;;;;6232604;28;89166;-72
2023/09/18 06:51:10;;;;;;;6.78;5.80;;;23.40;99.90;;;;;;6233262;28;89013;-71
2023/09/18 06:54:12;;;;;;;5.85;5.35;;;23.40;99.90;;;;;;6228545;28;89059;-71
2023/09/18 06:57:14;;;;;;;6.40;5.80;;;23.40;99.90;;;;;;6233023;28;88333;-71
2023/09/18 07:00:20;;;;;;;5.97;5.38;;;23.30;99.90;;;;;;6232220;28;89078;-71
2023/09/18 07:03:23;;;;;;;6.47;5.63;;;23.30;99.90;;;;;;6231848;28;89536;-71
2023/09/18 07:06:25;;;;;;;6.63;5.50;;;23.30;99.90;;;;;;6221903;28;90136;-70
2023/09/18 07:09:27;;;;;;;6.53;5.90;;;23.30;99.90;;;;;;6228849;28;89066;-70
2023/09/18 07:12:31;;;;;;;6.05;5.55;;;23.30;99.90;;;;;;6230966;28;89158;-70
2023/09/18 07:15:34;;;;;;;6.55;5.80;;;23.20;99.90;;;;;;6230170;28;89212;-70
2023/09/18 07:18:36;;;;;;;5.60;5.10;;;23.20;99.90;;;;;;6229272;28;89103;-72
2023/09/18 07:21:40;;;;;;;7.63;5.82;;;23.30;99.90;;;;;;6230946;28;89065;-71
2023/09/18 07:24:45;;;;;;;8.25;5.97;;;23.30;99.90;;;;;;6230410;28;88980;-71
2023/09/18 07:27:47;;;;;;;8.85;6.50;;;23.20;99.90;;;;;;6224079;28;88620;-71
2023/09/18 07:30:50;;;;;;;6.05;5.45;;;23.30;99.90;;;;;;6233045;28;89121;-71
2023/09/18 07:33:52;;;;;;;5.40;5.00;;;23.30;99.90;;;;;;6232595;28;89407;-71
2023/09/18 07:36:56;;;;;;;6.28;5.57;;;23.30;99.90;;;;;;6231473;28;90110;-71
2023/09/18 07:39:58;;;;;;;6.47;5.15;;;23.30;99.90;;;;;;6230837;28;89162;-71
2023/09/18 07:43:00;;;;;;;5.80;5.30;;;23.30;99.90;;;;;;6231318;28;89114;-71
2023/09/18 07:46:04;;;;;;;6.00;5.40;;;23.30;99.90;;;;;;6231247;28;88254;-71
2023/09/18 07:49:06;;;;;;;6.00;5.40;;;23.30;99.90;;;;;;6231048;28;89087;-71
2023/09/18 07:52:08;;;;;;;6.07;5.47;;;23.30;99.90;;;;;;6229007;28;89413;-70
2023/09/18 07:55:11;;;;;;;6.40;5.72;;;23.40;99.90;;;;;;6230952;28;89054;-73
2023/09/18 07:58:13;;;;;;;6.80;5.63;;;23.40;99.90;;;;;;6231729;28;88586;-71
2023/09/18 08:01:17;;;;;;;7.75;5.97;;;23.40;99.90;;;;;;6225548;28;89417;-71
2023/09/18 08:04:19;;;;;;;5.97;5.43;;;23.30;99.90;;;;;;6229219;28;89111;-71
2023/09/18 08:07:21;;;;;;;5.90;5.40;;;23.30;99.90;;;;;;6230640;28;88963;-70
2023/09/18 08:10:23;;;;;;;7.05;6.28;;;23.30;99.90;;;;;;6230977;28;89206;-71
2023/09/18 08:13:25;;;;;;;5.53;5.13;;;23.30;99.90;;;;;;6231138;28;89010;-71
2023/09/18 08:16:29;;;;;;;6.50;5.70;;;23.40;99.90;;;;;;6229309;28;89000;-71
2023/09/18 08:19:31;;;;;;;6.25;5.75;;;23.30;99.90;;;;;;6223221;28;89278;-71
2023/09/18 08:22:33;;;;;;;10.68;7.25;;;23.30;99.90;;;;;;6229888;28;89508;-71
2023/09/18 08:25:35;;;;;;;6.90;6.15;;;23.30;99.90;;;;;;6231655;28;89490;-71
2023/09/18 08:28:43;;;;;;;6.40;5.75;;;23.30;99.90;;;;;;6232783;28;87267;-71
2023/09/18 08:31:46;;;;;;;6.22;5.63;;;23.30;99.90;;;;;;6231925;28;88975;-71
2023/09/18 08:34:48;;;;;;;6.60;6.00;;;23.30;99.90;;;;;;6221290;28;87930;-71
2023/09/18 08:37:50;;;;;;;6.45;5.70;;;23.30;99.90;;;;;;6227115;28;89919;-71
2023/09/18 08:40:54;;;;;;;5.80;5.30;;;23.30;99.90;;;;;;6224087;28;88990;-70
2023/09/18 08:44:04;;;;;;;6.20;5.60;;;23.30;99.90;;;;;;6224231;28;88916;-70
2023/09/18 08:47:09;;;;;;;7.22;6.53;;;23.30;99.90;;;;;;6225899;28;88385;-70
2023/09/18 08:50:12;;;;;;;7.43;6.72;;;23.30;99.90;;;;;;6226755;28;88971;-71
2023/09/18 08:53:14;;;;;;;7.78;6.13;;;23.30;99.90;;;;;;6230526;28;89036;-71
2023/09/18 08:56:18;;;;;;;7.28;6.18;;;23.30;99.90;;;;;;6231125;28;89942;-71
2023/09/18 08:59:22;;;;;;;6.13;5.32;;;23.30;99.90;;;;;;6231059;28;88490;-71
2023/09/18 09:02:26;;;;;;;7.38;5.78;;;23.30;99.90;;;;;;6224312;28;88999;-71
2023/09/18 09:05:28;;;;;;;8.30;6.53;;;23.30;99.90;;;;;;6230554;28;89172;-70
2023/09/18 09:08:30;;;;;;;6.95;6.05;;;23.30;99.90;;;;;;6228980;28;90710;-71
2023/09/18 09:11:32;;;;;;;8.02;5.78;;;23.30;99.90;;;;;;6231011;28;89067;-71
2023/09/18 09:14:35;;;;;;;8.10;6.28;;;23.30;99.90;;;;;;6221280;28;89404;-71
2023/09/18 09:17:38;;;;;;;6.30;5.70;;;23.30;99.90;;;;;;6230403;28;87857;-71
2023/09/18 09:20:40;;;;;;;7.78;6.32;;;23.30;99.90;;;;;;6218900;28;89361;-71
2023/09/18 09:23:52;;;;;;;8.00;6.22;;;23.30;99.90;;;;;;6225972;28;88977;-71
2023/09/18 09:26:59;;;;;;;5.88;5.38;;;23.40;99.90;;;;;;6215353;28;89225;-72
2023/09/18 09:30:01;;;;;;;7.75;6.18;;;23.30;99.90;;;;;;6229328;28;88792;-70
2023/09/18 09:33:07;;;;;;;6.22;5.63;;;23.30;99.90;;;;;;6229390;28;88992;-71
2023/09/18 09:36:09;;;;;;;6.30;5.70;;;23.40;99.90;;;;;;6228825;28;88988;-71
2023/09/18 09:39:14;;;;;;;6.18;5.57;;;23.40;99.90;;;;;;6221942;28;89021;-71
2023/09/18 09:42:23;;;;;;;6.20;5.65;;;23.40;99.90;;;;;;6230262;28;89106;-70
2023/09/18 09:45:25;;;;;;;5.68;5.18;;;23.40;99.90;;;;;;6229285;28;89062;-71
2023/09/18 09:48:30;;;;;;;5.70;5.10;;;23.40;99.90;;;;;;6228999;28;89063;-71
2023/09/18 09:51:34;;;;;;;5.82;5.28;;;23.40;99.90;;;;;;6230122;28;89043;-71
2023/09/18 09:54:36;;;;;;;6.10;5.35;;;23.40;99.90;;;;;;6233688;28;89290;-71
2023/09/18 09:57:48;;;;;;;6.80;5.78;;;23.50;99.90;;;;;;6229351;28;89210;-71
2023/09/18 10:00:55;;;;;;;6.25;5.60;;;23.40;99.90;;;;;;6225040;28;88190;-71
2023/09/18 10:04:01;;;;;;;10.13;6.20;;;23.50;99.90;;;;;;6212265;28;88094;-71
2023/09/18 10:07:08;;;;;;;7.03;5.80;;;23.50;99.90;;;;;;6224274;28;87926;-71
2023/09/18 10:10:11;;;;;;;6.55;5.88;;;23.50;99.90;;;;;;6233476;28;89991;-71
2023/09/18 10:13:18;;;;;;;6.57;5.75;;;23.50;99.90;;;;;;6233421;28;87944;-71
2023/09/18 10:16:25;;;;;;;7.93;5.13;;;23.50;99.90;;;;;;6177499;28;88026;-70
2023/09/18 10:19:34;;;;;;;5.95;5.35;;;23.60;99.90;;;;;;6233878;28;88920;-71
2023/09/18 10:22:42;;;;;;;6.22;5.30;;;23.60;99.90;;;;;;6220167;28;89082;-71
2023/09/18 10:25:45;;;;;;;5.65;5.13;;;23.60;99.90;;;;;;6231729;28;89401;-70
2023/09/18 10:28:48;;;;;;;6.18;5.35;;;23.60;99.90;;;;;;6233604;28;89331;-71
2023/09/18 10:31:51;;;;;;;7.65;5.90;;;23.60;99.90;;;;;;6233486;28;88272;-70
2023/09/18 10:34:55;;;;;;;5.97;5.43;;;23.60;99.90;;;;;;6232972;28;89096;-71
2023/09/18 10:37:58;;;;;;;5.30;4.80;;;23.70;99.90;;;;;;6232736;28;89875;-71
2023/09/18 10:41:01;;;;;;;6.07;5.47;;;23.60;99.90;;;;;;6232018;28;89970;-69
2023/09/18 10:44:05;;;;;;;7.32;5.70;;;23.60;99.90;;;;;;6232674;28;87982;-71
2023/09/18 10:47:09;;;;;;;6.38;5.20;;;23.70;99.90;;;;;;6232508;28;89358;-71
2023/09/18 10:50:12;;;;;;;6.30;5.38;;;23.70;99.90;;;;;;6233564;28;89097;-71
2023/09/18 10:53:14;;;;;;;6.30;5.40;;;23.70;99.90;;;;;;6228865;28;89065;-71
2023/09/18 10:56:17;;;;;;;6.28;5.45;;;23.70;99.90;;;;;;6233746;28;91791;-71
2023/09/18 10:59:19;;;;;;;7.13;5.85;;;23.70;99.90;;;;;;6231360;28;89589;-71
2023/09/18 11:02:24;;;;;;;7.03;5.55;;;23.70;99.90;;;;;;6227600;28;88735;-70
2023/09/18 11:05:33;;;;;;;8.32;5.95;;;23.70;99.90;;;;;;6217749;28;89583;-71
2023/09/18 11:08:43;;;;;;;9.15;6.07;;;23.70;99.90;;;;;;6221235;28;87912;-71
2023/09/18 11:11:48;;;;;;;7.47;5.82;;;23.60;99.90;;;;;;6231803;28;89961;-71
2023/09/18 11:14:57;;;;;;;5.93;5.20;;;23.60;99.90;;;;;;6227746;28;89254;-71
2023/09/18 11:18:00;;;;;;;6.85;5.55;;;23.70;99.90;;;;;;6227510;28;89035;-71
2023/09/18 11:21:11;;;;;;;7.15;5.38;;;23.60;99.90;;;;;;6233524;28;89107;-72
2023/09/18 11:24:18;;;;;;;6.47;5.13;;;23.70;99.90;;;;;;6220073;28;89084;-71
2023/09/18 11:27:25;;;;;;;7.28;5.40;;;23.70;99.90;;;;;;6230440;28;87995;-72
2023/09/18 11:30:28;;;;;;;5.90;5.30;;;23.70;99.90;;;;;;6231559;28;88931;-70
2023/09/18 11:33:35;;;;;;;6.47;5.47;;;23.70;99.90;;;;;;6228193;28;88333;-71
2023/09/18 11:36:39;;;;;;;5.85;5.32;;;23.70;99.90;;;;;;6230614;28;89053;-72
2023/09/18 11:39:44;;;;;;;7.68;5.57;;;23.70;99.90;;;;;;6232443;28;89397;-71
2023/09/18 11:43:23;;;;;;;5.78;5.20;;;23.70;99.90;;;;;;6225834;28;90267;-71
2023/09/18 11:46:26;;;;;;;6.20;5.60;;;23.70;99.90;;;;;;6229266;28;89424;-71
2023/09/18 11:49:31;;;;;;;6.47;5.72;;;23.70;99.90;;;;;;6224018;28;89054;-71
2023/09/18 11:52:36;;;;;;;6.47;5.50;;;23.70;99.90;;;;;;6232599;28;87957;-71
2023/09/18 11:55:40;;;;;;;6.00;5.50;;;23.70;99.90;;;;;;6225777;28;89567;-71
2023/09/18 11:58:49;;;;;;;6.57;5.50;;;23.80;99.90;;;;;;6229669;28;88566;-71
2023/09/18 12:02:00;;;;;;;7.38;5.95;;;23.80;99.90;;;;;;6225037;28;89022;-70
2023/09/18 12:05:06;;;;;;;7.80;5.72;;;23.80;99.90;;;;;;6231651;28;88486;-71
2023/09/18 12:08:11;;;;;;;7.10;5.70;;;23.70;99.90;;;;;;6231251;28;89104;-71
2023/09/18 12:11:16;;;;;;;6.22;5.63;;;23.80;99.90;;;;;;6230716;28;89457;-71
2023/09/18 12:14:21;;;;;;;6.78;6.05;;;23.80;99.90;;;;;;6216712;28;89746;-70
2023/09/18 12:17:23;;;;;;;6.20;5.55;;;23.80;99.90;;;;;;6219741;28;89289;-70
2023/09/18 12:20:25;;;;;;;7.45;5.50;;;23.80;99.90;;;;;;6227412;28;89096;-71
2023/09/18 12:23:32;;;;;;;6.80;5.43;;;23.80;99.90;;;;;;6230012;28;89088;-71
2023/09/18 12:26:34;;;;;;;6.68;5.15;;;23.80;99.90;;;;;;6231111;28;88725;-71
2023/09/18 12:29:36;;;;;;;7.22;5.05;;;23.80;99.90;;;;;;6231086;28;89093;-71
2023/09/18 12:32:39;;;;;;;8.27;4.93;;;23.80;99.90;;;;;;6231113;28;89086;-71
2023/09/18 12:35:42;;;;;;;6.95;4.70;;;23.70;99.90;;;;;;6231582;28;88309;-71
2023/09/18 12:38:55;;;;;;;6.45;4.40;;;23.70;99.90;;;;;;6223643;28;88031;-70
2023/09/18 12:41:58;;;;;;;7.93;4.97;;;23.70;99.90;;;;;;6224185;28;89075;-71
2023/09/18 12:45:00;;;;;;;9.40;4.95;;;23.70;99.90;;;;;;6229561;28;90299;-71
2023/09/18 12:48:03;;;;;;;8.75;5.00;;;23.80;99.90;;;;;;6229860;28;89065;-71
2023/09/18 12:51:06;;;;;;;9.20;4.75;;;23.70;99.90;;;;;;6230383;28;89382;-71
2023/09/18 12:54:11;;;;;;;7.50;4.68;;;23.70;99.90;;;;;;6222388;28;89363;-71
2023/09/18 12:57:17;;;;;;;8.40;4.72;;;23.80;99.90;;;;;;6229994;28;89143;-71
2023/09/18 13:00:22;;;;;;;8.50;4.78;;;23.80;99.90;;;;;;6222377;28;89000;-71
2023/09/18 13:03:24;;;;;;;7.38;4.82;;;23.80;99.90;;;;;;6229221;28;89365;-71
2023/09/18 13:06:26;;;;;;;9.80;4.82;;;23.80;99.90;;;;;;6230679;28;88787;-71
2023/09/18 13:09:29;;;;;;;8.18;4.50;;;23.80;99.90;;;;;;6229328;28;89035;-71
2023/09/18 13:12:41;;;;;;;8.02;5.00;;;23.80;99.90;;;;;;6229711;28;89029;-71
2023/09/18 13:15:45;;;;;;;8.00;4.82;;;23.80;99.90;;;;;;6214065;28;90052;-69
2023/09/18 13:18:49;;;;;;;6.95;4.60;;;23.80;99.90;;;;;;6218994;28;88853;-71
2023/09/18 13:21:51;;;;;;;8.15;5.10;;;23.80;99.90;;;;;;6222562;28;89512;-71
2023/09/18 13:24:58;;;;;;;9.73;5.43;;;23.80;99.90;;;;;;6214008;28;89016;-72
2023/09/18 13:28:00;;;;;;;9.80;5.45;;;23.80;99.90;;;;;;6231214;28;89223;-73
2023/09/18 13:31:05;;;;;;;9.45;5.60;;;23.80;99.90;;;;;;6231672;28;89072;-73
2023/09/18 13:34:07;;;;;;;7.75;5.53;;;23.80;99.90;;;;;;6230891;28;89096;-73
2023/09/18 13:37:09;;;;;;;6.55;5.03;;;23.80;99.90;;;;;;6232052;28;88182;-73
2023/09/18 13:40:13;;;;;;;8.13;5.07;;;23.80;99.90;;;;;;6230850;28;88948;-73
2023/09/18 13:43:16;;;;;;;8.95;5.28;;;23.80;99.90;;;;;;6229535;28;89321;-73
2023/09/18 13:46:18;;;;;;;9.00;5.20;;;23.80;99.90;;;;;;6226911;28;90101;-73
2023/09/18 13:49:20;;;;;;;9.75;5.53;;;23.80;99.90;;;;;;6231570;28;89347;-74
2023/09/18 13:52:22;;;;;;;9.80;5.13;;;23.80;99.90;;;;;;6230977;28;89010;-73
2023/09/18 13:55:25;;;;;;;34.83;12.30;;;23.80;99.90;;;;;;6228297;28;88992;-73
2023/09/18 13:58:27;;;;;;;43.13;15.45;;;23.80;99.90;;;;;;6228876;28;89064;-74
2023/09/18 14:01:29;;;;;;;23.52;11.13;;;23.80;99.90;;;;;;6226678;28;89045;-73
2023/09/18 14:04:32;;;;;;;17.55;8.40;;;23.80;99.90;;;;;;6227847;28;89113;-74
2023/09/18 14:07:34;;;;;;;14.30;7.40;;;23.80;99.90;;;;;;6228163;28;88446;-74
2023/09/18 14:10:39;;;;;;;12.02;6.47;;;23.90;99.90;;;;;;6230346;28;89072;-74
2023/09/18 14:13:42;;;;;;;13.82;5.88;;;23.80;99.90;;;;;;6231145;28;89229;-73
2023/09/18 14:16:44;;;;;;;10.68;5.90;;;23.80;99.90;;;;;;6222863;28;90457;-73
2023/09/18 14:19:46;;;;;;;9.57;5.68;;;23.80;99.90;;;;;;6229467;28;89124;-73
2023/09/18 14:22:49;;;;;;;8.75;5.30;;;23.80;99.90;;;;;;6229841;28;89192;-73
2023/09/18 14:25:54;;;;;;;11.35;5.47;;;23.80;99.90;;;;;;6227922;28;89119;-72
2023/09/18 14:28:56;;;;;;;7.85;5.03;;;23.80;99.90;;;;;;6226643;28;87973;-72
2023/09/18 14:31:58;;;;;;;9.20;4.95;;;23.90;99.90;;;;;;6219699;28;89229;-73
2023/09/18 14:35:02;;;;;;;10.82;4.97;;;23.90;99.90;;;;;;6231548;28;89089;-74
2023/09/18 14:38:06;;;;;;;6.88;4.63;;;23.90;99.90;;;;;;6229860;28;88361;-73
2023/09/18 14:41:11;;;;;;;9.18;4.47;;;23.90;99.90;;;;;;6227340;28;88052;-74
2023/09/18 14:44:13;;;;;;;8.15;4.50;;;23.90;99.90;;;;;;6222500;28;88164;-74
2023/09/18 14:47:16;;;;;;;5.88;3.88;;;23.90;99.90;;;;;;6231671;28;88991;-73
2023/09/18 14:50:20;;;;;;;7.03;3.95;;;23.90;99.90;;;;;;6229390;28;89270;-73
2023/09/18 14:53:24;;;;;;;7.68;4.30;;;23.90;99.90;;;;;;6226915;28;88396;-74
2023/09/18 14:56:29;;;;;;;10.35;4.25;;;23.80;99.90;;;;;;6232450;28;87033;-74
2023/09/18 14:59:32;;;;;;;7.60;3.60;;;23.90;99.90;;;;;;6231243;28;87932;-73
2023/09/18 15:02:36;;;;;;;8.43;3.72;;;23.90;99.90;;;;;;6225031;28;88158;-73
2023/09/18 15:05:39;;;;;;;8.60;3.80;;;23.90;99.90;;;;;;6233058;28;90721;-74
2023/09/18 15:08:43;;;;;;;8.65;3.83;;;23.90;99.90;;;;;;6232758;28;87180;-74
2023/09/18 15:11:48;;;;;;;7.22;3.40;;;23.80;99.90;;;;;;6232575;28;87868;-74
2023/09/18 15:14:51;;;;;;;6.45;3.60;;;23.90;99.90;;;;;;6233041;28;86964;-74
2023/09/18 15:17:55;;;;;;;6.97;3.42;;;23.80;99.90;;;;;;6232466;28;89585;-73
2023/09/18 15:20:58;;;;;;;6.40;3.53;;;23.90;99.90;;;;;;6232130;28;88041;-74
2023/09/18 15:24:03;;;;;;;8.93;3.60;;;23.90;99.90;;;;;;6224861;28;87977;-73
2023/09/18 15:27:09;;;;;;;9.85;3.45;;;23.90;99.90;;;;;;6231548;28;88008;-73
2023/09/18 15:30:14;;;;;;;9.00;3.90;;;23.80;99.90;;;;;;6227034;28;88048;-73
2023/09/18 15:33:18;;;;;;;7.22;3.42;;;23.80;99.90;;;;;;6224790;28;88044;-74
2023/09/18 15:36:22;;;;;;;7.97;3.25;;;23.80;99.90;;;;;;6230900;28;88007;-73
2023/09/18 15:39:27;;;;;;;7.35;3.55;;;23.90;99.90;;;;;;6227036;28;87467;-73
2023/09/18 15:42:32;;;;;;;9.95;3.40;;;23.80;99.90;;;;;;6229635;28;88015;-74
2023/09/18 15:45:36;;;;;;;8.88;3.45;;;23.80;99.90;;;;;;6229378;28;88071;-74
2023/09/18 15:48:40;;;;;;;9.65;3.03;;;23.90;99.90;;;;;;6228123;28;88952;-74
2023/09/18 15:51:43;;;;;;;9.60;2.72;;;23.80;99.90;;;;;;6227828;28;88332;-73
2023/09/18 15:54:47;;;;;;;5.20;2.80;;;23.90;99.90;;;;;;6224485;28;87205;-75